Time;durP1;ratioP1;P1;durP2;ratioP2;P2;SDS_P1;SDS_P2;PMS_P1;PMS_P2;Temp;Humidity;BMP_temperature;BMP_pressure;BME280_temperature;BME280_humidity;BME280_pressure;Samples;Min_cycle;Max_cycle;Signal;HPM_P1;HPM_P2
2021/04/08 00:01:23;;;;;;;2.70;2.50;;;;;;;;;;5092064;28;20199;-72
2021/04/08 00:03:50;;;;;;;4.90;3.63;;;;;;;;;;5092746;28;20529;-72
2021/04/08 00:06:16;;;;;;;3.90;2.60;;;;;;;;;;5091792;28;20245;-72
2021/04/08 00:08:42;;;;;;;7.15;4.50;;;;;;;;;;5091854;28;20197;-73
2021/04/08 00:11:08;;;;;;;3.53;3.22;;;;;;;;;;5092956;28;20211;-73
2021/04/08 00:13:35;;;;;;;4.35;3.30;;;;;;;;;;5092825;28;20202;-73
2021/04/08 00:16:02;;;;;;;5.18;3.33;;;;;;;;;;5092508;28;20339;-73
2021/04/08 00:18:28;;;;;;;2.85;2.55;;;;;;;;;;5092414;28;20209;-74
2021/04/08 00:20:54;;;;;;;3.35;2.55;;;;;;;;;;5092436;28;20236;-74
2021/04/08 00:23:21;;;;;;;4.40;2.97;;;;;;;;;;5092729;28;20201;-74
2021/04/08 00:25:47;;;;;;;5.18;3.55;;;;;;;;;;5092114;28;20618;-73
2021/04/08 00:28:13;;;;;;;4.93;3.72;;;;;;;;;;5092553;28;20217;-74
2021/04/08 00:30:43;;;;;;;5.72;3.53;;;;;;;;;;5091784;28;20200;-74
2021/04/08 00:33:10;;;;;;;10.60;3.40;;;;;;;;;;5093112;28;20199;-72
2021/04/08 00:35:36;;;;;;;5.45;3.58;;;;;;;;;;5092265;28;20304;-74
2021/04/08 00:38:02;;;;;;;4.80;3.35;;;;;;;;;;5092481;28;20205;-73
2021/04/08 00:40:28;;;;;;;8.45;2.65;;;;;;;;;;5092004;28;20208;-73
2021/04/08 00:42:54;;;;;;;3.58;3.15;;;;;;;;;;5092726;28;20709;-73
2021/04/08 00:45:20;;;;;;;5.07;3.88;;;;;;;;;;5092542;28;20633;-73
2021/04/08 00:47:48;;;;;;;4.10;3.08;;;;;;;;;;5092187;28;20200;-73
2021/04/08 00:50:15;;;;;;;4.10;3.70;;;;;;;;;;5092264;28;20202;-73
2021/04/08 00:52:42;;;;;;;4.57;3.10;;;;;;;;;;5092030;28;20200;-74
2021/04/08 00:55:08;;;;;;;6.18;3.38;;;;;;;;;;5091714;28;20354;-73
2021/04/08 00:57:34;;;;;;;7.28;3.80;;;;;;;;;;5091885;28;20204;-73
2021/04/08 01:00:04;;;;;;;5.78;4.03;;;;;;;;;;5092123;28;20633;-73
2021/04/08 01:02:30;;;;;;;3.67;3.40;;;;;;;;;;5091802;28;20240;-74
2021/04/08 01:04:57;;;;;;;5.32;3.22;;;;;;;;;;5092287;28;20203;-73
2021/04/08 01:07:23;;;;;;;5.45;4.32;;;;;;;;;;5091716;28;20205;-73
2021/04/08 01:09:49;;;;;;;5.35;3.22;;;;;;;;;;5091670;28;20294;-73
2021/04/08 01:12:15;;;;;;;5.70;3.80;;;;;;;;;;5092825;28;20203;-74
2021/04/08 01:14:41;;;;;;;6.57;2.75;;;;;;;;;;5095138;28;20212;-73
2021/04/08 01:17:12;;;;;;;7.05;3.97;;;;;;;;;;5095471;28;20212;-73
2021/04/08 01:20:11;;;;;;;3.33;3.03;;;;;;;;;;5094919;28;20201;-73
2021/04/08 01:22:47;;;;;;;8.52;3.70;;;;;;;;;;4993396;28;20217;-73
2021/04/08 01:25:28;;;;;;;3.08;2.85;;;;;;;;;;4993627;28;20651;-73
2021/04/08 01:28:10;;;;;;;6.68;4.70;;;;;;;;;;5054837;28;20204;-74
2021/04/08 01:30:41;;;;;;;4.05;2.97;;;;;;;;;;5094793;28;20226;-73
2021/04/08 01:33:10;;;;;;;5.22;2.00;;;;;;;;;;5094647;28;20284;-73
2021/04/08 01:35:39;;;;;;;4.70;3.47;;;;;;;;;;5094561;28;20322;-73
2021/04/08 01:38:08;;;;;;;6.10;4.28;;;;;;;;;;5094926;28;20200;-74
2021/04/08 01:40:35;;;;;;;5.70;3.85;;;;;;;;;;5094629;28;20208;-73
2021/04/08 01:43:02;;;;;;;2.30;2.13;;;;;;;;;;5094516;28;20197;-73
2021/04/08 01:45:28;;;;;;;4.68;3.40;;;;;;;;;;5095187;28;20678;-72
2021/04/08 01:47:56;;;;;;;2.53;2.15;;;;;;;;;;5095039;28;20204;-74
2021/04/08 01:50:23;;;;;;;6.70;4.05;;;;;;;;;;5094553;28;20185;-74
2021/04/08 01:52:50;;;;;;;3.30;3.00;;;;;;;;;;5094143;28;20317;-74
2021/04/08 01:55:17;;;;;;;4.45;3.45;;;;;;;;;;5094632;28;20592;-74
2021/04/08 01:57:45;;;;;;;5.03;3.45;;;;;;;;;;5094724;28;20204;-74
2021/04/08 02:00:12;;;;;;;4.57;3.35;;;;;;;;;;5094629;28;20188;-75
2021/04/08 02:02:39;;;;;;;13.05;4.70;;;;;;;;;;5094089;28;20253;-73
2021/04/08 02:05:08;;;;;;;5.38;3.80;;;;;;;;;;5094451;28;20216;-72
2021/04/08 02:07:35;;;;;;;8.77;4.15;;;;;;;;;;5094702;28;20211;-74
2021/04/08 02:10:02;;;;;;;4.05;3.50;;;;;;;;;;5094736;28;20203;-73
2021/04/08 02:12:29;;;;;;;6.53;4.05;;;;;;;;;;5094574;28;20373;-73
2021/04/08 02:14:56;;;;;;;5.07;3.80;;;;;;;;;;5094513;28;20259;-74
2021/04/08 02:17:22;;;;;;;6.00;4.07;;;;;;;;;;5094041;28;20196;-74
2021/04/08 02:19:51;;;;;;;6.68;4.07;;;;;;;;;;5094125;28;20211;-72
2021/04/08 02:22:18;;;;;;;3.25;2.50;;;;;;;;;;5094600;28;20628;-74
2021/04/08 02:24:44;;;;;;;7.20;4.15;;;;;;;;;;5093706;28;20657;-74
2021/04/08 02:27:10;;;;;;;6.28;4.03;;;;;;;;;;5094313;28;20579;-74
2021/04/08 02:29:37;;;;;;;7.80;5.18;;;;;;;;;;5093818;28;20262;-74
2021/04/08 02:32:03;;;;;;;5.38;3.58;;;;;;;;;;5093569;28;20208;-73
2021/04/08 02:34:30;;;;;;;6.78;4.55;;;;;;;;;;5094040;28;20203;-74
2021/04/08 02:36:56;;;;;;;4.65;4.15;;;;;;;;;;5093473;28;20228;-73
2021/04/08 02:39:23;;;;;;;3.47;3.17;;;;;;;;;;5093301;28;20186;-74
2021/04/08 02:41:49;;;;;;;6.95;4.20;;;;;;;;;;5093336;28;20287;-74
2021/04/08 02:44:15;;;;;;;6.32;3.50;;;;;;;;;;5093695;28;20199;-74
2021/04/08 02:46:41;;;;;;;5.55;4.68;;;;;;;;;;5093089;28;20186;-73
2021/04/08 02:49:07;;;;;;;6.70;3.30;;;;;;;;;;5093216;28;20291;-74
2021/04/08 02:51:35;;;;;;;5.00;4.00;;;;;;;;;;5093625;28;20251;-74
2021/04/08 02:54:06;;;;;;;6.82;4.28;;;;;;;;;;5094181;28;20223;-73
2021/04/08 02:56:34;;;;;;;5.65;5.03;;;;;;;;;;5093697;28;20250;-74
2021/04/08 02:59:03;;;;;;;4.47;3.50;;;;;;;;;;5093036;28;20203;-74
2021/04/08 03:01:30;;;;;;;6.50;3.10;;;;;;;;;;5092961;28;20200;-74
2021/04/08 03:03:58;;;;;;;7.53;4.90;;;;;;;;;;5093171;28;20188;-74
2021/04/08 03:06:24;;;;;;;3.08;2.72;;;;;;;;;;5093125;28;20194;-75
2021/04/08 03:08:52;;;;;;;9.63;4.40;;;;;;;;;;5093435;28;20210;-73
2021/04/08 03:11:33;;;;;;;5.93;3.35;;;;;;;;;;5092981;28;20222;-74
2021/04/08 03:14:01;;;;;;;5.43;3.47;;;;;;;;;;5093282;28;20252;-74
2021/04/08 03:16:31;;;;;;;4.68;3.05;;;;;;;;;;5093447;28;20216;-73
2021/04/08 03:18:58;;;;;;;6.10;3.80;;;;;;;;;;5093609;28;20551;-74
2021/04/08 03:21:25;;;;;;;6.45;4.65;;;;;;;;;;5093363;28;20586;-74
2021/04/08 03:23:52;;;;;;;6.15;4.85;;;;;;;;;;5093183;28;20196;-74
2021/04/08 03:26:18;;;;;;;8.07;3.40;;;;;;;;;;5092726;28;20189;-74
2021/04/08 03:28:44;;;;;;;4.78;4.15;;;;;;;;;;5092716;28;20243;-73
2021/04/08 03:31:12;;;;;;;5.15;3.50;;;;;;;;;;5093271;28;20245;-73
2021/04/08 03:33:39;;;;;;;6.88;4.00;;;;;;;;;;5092824;28;20205;-75
2021/04/08 03:36:05;;;;;;;5.05;3.20;;;;;;;;;;5092075;28;20232;-74
2021/04/08 03:38:31;;;;;;;5.70;4.35;;;;;;;;;;5092359;28;20199;-73
2021/04/08 03:40:58;;;;;;;4.88;4.40;;;;;;;;;;5092252;28;20210;-74
2021/04/08 03:43:24;;;;;;;7.60;3.72;;;;;;;;;;5092533;28;20180;-74
2021/04/08 03:45:50;;;;;;;3.42;3.13;;;;;;;;;;5092193;28;20204;-73
2021/04/08 03:48:18;;;;;;;4.30;2.80;;;;;;;;;;5091986;28;20208;-73
2021/04/08 03:50:44;;;;;;;6.85;3.20;;;;;;;;;;5092571;28;20606;-74
2021/04/08 03:53:11;;;;;;;15.82;4.28;;;;;;;;;;5092401;28;20205;-74
2021/04/08 03:55:37;;;;;;;5.80;4.22;;;;;;;;;;5092125;28;20294;-74
2021/04/08 03:58:04;;;;;;;4.78;3.30;;;;;;;;;;5092722;28;20564;-74
2021/04/08 04:00:30;;;;;;;3.70;3.40;;;;;;;;;;5092881;28;20194;-73
2021/04/08 04:02:57;;;;;;;4.32;3.05;;;;;;;;;;5092597;28;20201;-74
2021/04/08 04:05:24;;;;;;;4.65;4.15;;;;;;;;;;5093154;28;20628;-74
2021/04/08 04:07:51;;;;;;;7.65;3.67;;;;;;;;;;5092603;28;20291;-75
2021/04/08 04:10:19;;;;;;;9.73;4.97;;;;;;;;;;5092255;28;20283;-73
2021/04/08 04:12:46;;;;;;;7.07;5.10;;;;;;;;;;5092127;28;20192;-72
2021/04/08 04:15:13;;;;;;;8.10;3.58;;;;;;;;;;5091952;28;20216;-73
2021/04/08 04:17:38;;;;;;;4.75;3.63;;;;;;;;;;5092011;28;20253;-74
2021/04/08 04:20:05;;;;;;;4.37;3.43;;;;;;;;;;5091779;28;20188;-74
2021/04/08 04:22:33;;;;;;;3.20;2.10;;;;;;;;;;5091969;28;20464;-73
2021/04/08 04:24:59;;;;;;;11.95;4.28;;;;;;;;;;5091917;28;20196;-72
2021/04/08 04:27:25;;;;;;;12.18;5.00;;;;;;;;;;5091979;28;20638;-74
2021/04/08 04:29:51;;;;;;;4.68;4.05;;;;;;;;;;5092299;28;20644;-74
2021/04/08 04:32:17;;;;;;;8.43;3.35;;;;;;;;;;5092362;28;20212;-74
2021/04/08 04:34:43;;;;;;;5.60;3.38;;;;;;;;;;5092178;28;20294;-73
2021/04/08 04:37:10;;;;;;;6.05;4.65;;;;;;;;;;5092160;28;20725;-73
2021/04/08 04:39:37;;;;;;;8.88;4.00;;;;;;;;;;5091990;28;20234;-73
2021/04/08 04:42:03;;;;;;;8.82;4.40;;;;;;;;;;5092231;28;20287;-73
2021/04/08 04:44:30;;;;;;;7.72;5.10;;;;;;;;;;5092408;28;20566;-74
2021/04/08 04:46:56;;;;;;;5.85;5.22;;;;;;;;;;5093230;28;20187;-74
2021/04/08 04:49:21;;;;;;;6.75;3.85;;;;;;;;;;5096007;28;20195;-74
2021/04/08 04:51:47;;;;;;;7.95;4.57;;;;;;;;;;5095857;28;20548;-73
2021/04/08 04:54:14;;;;;;;4.18;3.65;;;;;;;;;;5096566;28;20279;-74
2021/04/08 04:56:41;;;;;;;8.23;5.03;;;;;;;;;;5095012;28;20224;-73
2021/04/08 04:59:06;;;;;;;11.55;6.15;;;;;;;;;;5095859;28;20200;-74
2021/04/08 05:01:33;;;;;;;6.15;4.65;;;;;;;;;;5095638;28;20207;-73
2021/04/08 05:03:58;;;;;;;10.35;5.13;;;;;;;;;;5095986;28;20674;-73
2021/04/08 05:06:25;;;;;;;5.82;3.70;;;;;;;;;;5094815;28;20192;-73
2021/04/08 05:08:51;;;;;;;4.68;3.75;;;;;;;;;;5095506;28;20196;-74
2021/04/08 05:11:17;;;;;;;4.30;3.70;;;;;;;;;;5095542;28;20260;-74
2021/04/08 05:13:44;;;;;;;7.95;3.85;;;;;;;;;;5095366;28;20188;-74
2021/04/08 05:16:10;;;;;;;6.50;4.85;;;;;;;;;;5095189;28;20249;-73
2021/04/08 05:18:36;;;;;;;6.25;4.05;;;;;;;;;;5078464;28;20220;-74
2021/04/08 05:21:02;;;;;;;8.17;3.83;;;;;;;;;;5093061;28;20680;-73
2021/04/08 05:23:28;;;;;;;8.73;3.90;;;;;;;;;;5094173;28;20434;-74
2021/04/08 05:25:54;;;;;;;10.18;5.30;;;;;;;;;;5094460;28;20453;-73
2021/04/08 05:28:20;;;;;;;5.90;4.70;;;;;;;;;;5094964;28;20545;-74
2021/04/08 05:30:47;;;;;;;13.02;5.05;;;;;;;;;;5094809;28;20200;-74
2021/04/08 05:33:13;;;;;;;10.55;5.55;;;;;;;;;;5094284;28;20196;-73
2021/04/08 05:35:39;;;;;;;9.63;5.47;;;;;;;;;;5094740;28;20231;-73
2021/04/08 05:38:05;;;;;;;8.98;6.70;;;;;;;;;;5094977;28;20214;-73
2021/04/08 05:40:32;;;;;;;14.93;5.75;;;;;;;;;;5094275;28;20668;-72
2021/04/08 05:42:58;;;;;;;11.45;5.68;;;;;;;;;;5094484;28;20231;-72
2021/04/08 05:45:27;;;;;;;9.23;5.10;;;;;;;;;;5094953;28;20203;-72
2021/04/08 05:47:54;;;;;;;10.02;4.93;;;;;;;;;;5094220;28;20187;-73
2021/04/08 05:50:20;;;;;;;19.58;6.25;;;;;;;;;;5093851;28;20208;-73
2021/04/08 05:52:46;;;;;;;6.65;4.40;;;;;;;;;;5094383;28;20207;-73
2021/04/08 05:55:12;;;;;;;12.40;5.03;;;;;;;;;;5094035;28;20216;-73
2021/04/08 05:57:39;;;;;;;7.82;5.47;;;;;;;;;;5094513;28;20200;-73
2021/04/08 06:00:06;;;;;;;26.65;5.85;;;;;;;;;;5093704;28;20632;-73
2021/04/08 06:02:33;;;;;;;7.07;5.10;;;;;;;;;;5094437;28;20231;-73
2021/04/08 06:05:00;;;;;;;12.98;7.55;;;;;;;;;;5094120;28;20200;-72
2021/04/08 06:07:26;;;;;;;7.32;5.00;;;;;;;;;;5094500;28;20195;-72
2021/04/08 06:09:52;;;;;;;13.63;4.75;;;;;;;;;;5094417;28;20204;-72
2021/04/08 06:12:18;;;;;;;22.38;6.28;;;;;;;;;;5093962;28;20195;-73
2021/04/08 06:14:45;;;;;;;9.52;5.18;;;;;;;;;;5094543;28;20200;-73
2021/04/08 06:17:12;;;;;;;9.40;5.72;;;;;;;;;;5090555;28;20193;-74
2021/04/08 06:19:37;;;;;;;9.18;5.18;;;;;;;;;;5074084;28;20189;-73
2021/04/08 06:22:05;;;;;;;8.57;5.07;;;;;;;;;;5074046;28;20676;-73
2021/04/08 06:24:30;;;;;;;10.27;5.53;;;;;;;;;;5073079;28;20447;-73
2021/04/08 06:26:57;;;;;;;12.65;6.57;;;;;;;;;;5073419;28;20643;-72
2021/04/08 06:29:23;;;;;;;16.35;5.45;;;;;;;;;;5073652;28;20679;-74
2021/04/08 06:31:52;;;;;;;7.72;4.95;;;;;;;;;;5082026;28;20204;-73
2021/04/08 06:34:18;;;;;;;6.18;5.40;;;;;;;;;;5094191;28;20207;-74
2021/04/08 06:36:44;;;;;;;14.45;5.63;;;;;;;;;;5093596;28;20322;-74
2021/04/08 06:39:11;;;;;;;14.00;6.20;;;;;;;;;;5094462;28;20192;-73
2021/04/08 06:41:37;;;;;;;9.40;4.95;;;;;;;;;;5093683;28;20226;-73
2021/04/08 06:44:05;;;;;;;7.47;5.13;;;;;;;;;;5093277;28;20635;-73
2021/04/08 06:46:35;;;;;;;10.30;6.13;;;;;;;;;;5093986;28;20543;-74
2021/04/08 06:49:04;;;;;;;8.20;5.45;;;;;;;;;;5093240;28;20520;-73
2021/04/08 06:51:32;;;;;;;6.60;5.75;;;;;;;;;;5093352;28;20207;-75
2021/04/08 06:54:00;;;;;;;8.27;4.55;;;;;;;;;;5093794;28;20298;-74
2021/04/08 06:56:28;;;;;;;9.32;6.20;;;;;;;;;;5092528;28;20216;-72
2021/04/08 06:58:54;;;;;;;11.77;4.35;;;;;;;;;;5092609;28;20205;-73
2021/04/08 07:01:21;;;;;;;9.55;4.70;;;;;;;;;;5092175;28;20198;-73
2021/04/08 07:03:48;;;;;;;3.78;3.42;;;;;;;;;;5092838;28;20209;-73
2021/04/08 07:06:14;;;;;;;5.70;5.05;;;;;;;;;;5093491;28;20535;-72
2021/04/08 07:08:40;;;;;;;4.53;3.95;;;;;;;;;;5094168;28;20264;-72
2021/04/08 07:11:06;;;;;;;6.30;4.90;;;;;;;;;;5093235;28;20206;-71
2021/04/08 07:13:33;;;;;;;13.10;5.20;;;;;;;;;;5093126;28;20275;-72
2021/04/08 07:16:00;;;;;;;6.30;4.82;;;;;;;;;;5093283;28;20216;-73
2021/04/08 07:18:27;;;;;;;14.73;6.40;;;;;;;;;;5079474;28;20631;-72
2021/04/08 07:20:53;;;;;;;4.47;4.05;;;;;;;;;;5073087;28;20271;-70
2021/04/08 07:23:20;;;;;;;6.07;4.05;;;;;;;;;;5072432;28;20282;-71
2021/04/08 07:26:06;;;;;;;12.88;4.93;;;;;;;;;;5072714;28;20202;-71
2021/04/08 07:28:34;;;;;;;4.15;3.55;;;;;;;;;;5075629;28;20202;-71
2021/04/08 07:31:18;;;;;;;5.95;4.03;;;;;;;;;;5092427;28;20202;-71
2021/04/08 07:33:44;;;;;;;4.65;3.92;;;;;;;;;;5093260;28;20203;-72
2021/04/08 07:36:10;;;;;;;10.70;4.85;;;;;;;;;;5092141;28;20245;-72
2021/04/08 07:38:47;;;;;;;4.97;3.83;;;;;;;;;;5092713;28;20616;-72
2021/04/08 07:41:21;;;;;;;8.45;3.92;;;;;;;;;;5092339;28;20207;-72
2021/04/08 07:43:58;;;;;;;8.25;5.15;;;;;;;;;;5092023;28;20202;-71
2021/04/08 07:46:34;;;;;;;5.75;3.90;;;;;;;;;;5091941;28;20211;-73
2021/04/08 07:49:00;;;;;;;5.20;3.67;;;;;;;;;;5091720;28;20199;-71
2021/04/08 07:51:30;;;;;;;5.68;3.35;;;;;;;;;;5092257;28;20184;-72
2021/04/08 07:54:12;;;;;;;8.95;3.88;;;;;;;;;;5092142;28;20238;-72
2021/04/08 07:56:39;;;;;;;3.70;2.83;;;;;;;;;;5091993;28;20219;-73
2021/04/08 07:59:18;;;;;;;6.40;3.47;;;;;;;;;;5092505;28;20203;-72
2021/04/08 08:01:45;;;;;;;4.72;3.60;;;;;;;;;;5092866;28;20251;-73
2021/04/08 08:04:21;;;;;;;4.15;3.42;;;;;;;;;;5092232;28;20561;-71
2021/04/08 08:06:48;;;;;;;4.53;3.30;;;;;;;;;;5092553;28;20565;-73
2021/04/08 08:09:14;;;;;;;4.90;2.55;;;;;;;;;;5091963;28;20218;-74
2021/04/08 08:11:40;;;;;;;4.43;2.92;;;;;;;;;;5093068;28;20750;-72
2021/04/08 08:14:06;;;;;;;4.75;3.53;;;;;;;;;;5091839;28;20260;-73
2021/04/08 08:16:37;;;;;;;3.50;2.95;;;;;;;;;;5091474;28;20304;-74
2021/04/08 08:19:03;;;;;;;11.70;3.80;;;;;;;;;;5073558;28;20235;-72
2021/04/08 08:21:35;;;;;;;5.25;3.95;;;;;;;;;;5072155;28;20681;-72
2021/04/08 08:24:05;;;;;;;3.50;3.20;;;;;;;;;;5076200;28;20188;-72
2021/04/08 08:26:31;;;;;;;4.13;2.90;;;;;;;;;;5075829;28;20287;-72
2021/04/08 08:28:58;;;;;;;5.45;3.60;;;;;;;;;;5075703;28;20769;-73
2021/04/08 08:31:35;;;;;;;6.85;2.95;;;;;;;;;;5075491;28;20204;-73
2021/04/08 08:34:05;;;;;;;4.68;3.10;;;;;;;;;;5095125;28;20328;-73
2021/04/08 08:36:32;;;;;;;8.10;3.90;;;;;;;;;;5095260;28;20271;-73
2021/04/08 08:38:58;;;;;;;5.75;3.25;;;;;;;;;;5095961;28;21034;-75
2021/04/08 08:41:25;;;;;;;8.52;3.22;;;;;;;;;;5095978;28;20938;-73
2021/04/08 08:43:51;;;;;;;3.22;2.70;;;;;;;;;;5094678;28;20642;-73
2021/04/08 08:46:17;;;;;;;5.20;3.10;;;;;;;;;;5095453;28;20565;-73
2021/04/08 08:48:44;;;;;;;4.75;2.92;;;;;;;;;;5095316;28;20203;-74
2021/04/08 08:51:11;;;;;;;2.70;2.50;;;;;;;;;;5094489;28;20340;-73
2021/04/08 08:53:38;;;;;;;3.40;3.05;;;;;;;;;;5095890;28;20629;-75
2021/04/08 08:56:04;;;;;;;3.55;3.10;;;;;;;;;;5095241;28;20218;-74
2021/04/08 08:58:31;;;;;;;3.55;2.92;;;;;;;;;;5095328;28;20207;-72
2021/04/08 09:00:59;;;;;;;10.02;2.20;;;;;;;;;;5095037;28;20200;-72
2021/04/08 09:03:26;;;;;;;3.30;3.00;;;;;;;;;;5095640;28;20546;-72
2021/04/08 09:05:53;;;;;;;6.50;2.80;;;;;;;;;;5095568;28;20199;-72
2021/04/08 09:08:24;;;;;;;2.47;2.10;;;;;;;;;;5095413;28;20200;-73
2021/04/08 09:10:50;;;;;;;2.60;2.35;;;;;;;;;;5095397;28;20204;-74
2021/04/08 09:13:17;;;;;;;5.30;3.10;;;;;;;;;;5095423;28;20991;-72
2021/04/08 09:15:43;;;;;;;2.22;1.83;;;;;;;;;;5096206;28;20659;-70
2021/04/08 09:18:09;;;;;;;4.68;2.50;;;;;;;;;;5084263;28;20214;-72
2021/04/08 09:20:36;;;;;;;11.07;2.90;;;;;;;;;;5074883;28;20207;-73
2021/04/08 09:23:03;;;;;;;4.43;2.83;;;;;;;;;;5092258;28;20196;-74
2021/04/08 09:25:31;;;;;;;3.10;2.50;;;;;;;;;;5094605;28;20554;-73
2021/04/08 09:27:58;;;;;;;5.10;3.15;;;;;;;;;;5095035;28;20208;-74
2021/04/08 09:30:50;;;;;;;3.83;2.85;;;;;;;;;;5094849;28;20203;-74
2021/04/08 09:33:17;;;;;;;4.40;3.35;;;;;;;;;;5094912;28;20284;-73
2021/04/08 09:38:29;;;;;;;3.55;2.67;;;;;;;;;;5052716;28;20236;-72
2021/04/08 09:41:08;;;;;;;6.80;2.45;;;;;;;;;;5087574;28;20946;-74
2021/04/08 09:43:34;;;;;;;7.57;2.70;;;;;;;;;;5095196;28;20300;-73
2021/04/08 09:46:02;;;;;;;3.30;3.00;;;;;;;;;;5094695;28;20646;-72
2021/04/08 09:48:41;;;;;;;2.50;2.25;;;;;;;;;;5093679;28;20195;-72
2021/04/08 09:51:09;;;;;;;3.58;2.83;;;;;;;;;;5094431;28;20566;-74
2021/04/08 09:53:50;;;;;;;4.80;3.20;;;;;;;;;;5095060;28;20212;-74
2021/04/08 09:56:17;;;;;;;2.95;2.63;;;;;;;;;;5093454;28;20215;-73
2021/04/08 09:58:55;;;;;;;4.28;2.58;;;;;;;;;;5094667;28;20200;-73
2021/04/08 10:01:22;;;;;;;6.57;3.83;;;;;;;;;;5094625;28;20208;-73
2021/04/08 10:03:48;;;;;;;3.70;2.78;;;;;;;;;;5094349;28;20316;-74
2021/04/08 10:06:15;;;;;;;5.13;3.05;;;;;;;;;;5094084;28;20204;-75
2021/04/08 10:08:41;;;;;;;5.00;2.50;;;;;;;;;;5093951;28;20199;-73
2021/04/08 10:11:07;;;;;;;4.30;2.63;;;;;;;;;;5094425;28;20640;-74
2021/04/08 10:13:35;;;;;;;6.13;3.40;;;;;;;;;;5094140;28;20290;-74
2021/04/08 10:16:02;;;;;;;4.80;3.45;;;;;;;;;;5092672;28;20298;-74
2021/04/08 10:18:30;;;;;;;4.63;2.70;;;;;;;;;;5093779;28;20311;-74
2021/04/08 10:20:57;;;;;;;4.72;3.72;;;;;;;;;;5094024;28;20541;-74
2021/04/08 10:23:29;;;;;;;4.30;3.05;;;;;;;;;;5093527;28;20208;-75
2021/04/08 10:25:56;;;;;;;5.15;2.90;;;;;;;;;;5093515;28;20193;-73
2021/04/08 10:28:22;;;;;;;11.90;4.30;;;;;;;;;;5093461;28;20253;-74
2021/04/08 10:30:49;;;;;;;5.55;3.15;;;;;;;;;;5093455;28;20203;-75
2021/04/08 10:33:16;;;;;;;6.90;3.20;;;;;;;;;;5093543;28;20337;-75
2021/04/08 10:35:43;;;;;;;5.05;3.50;;;;;;;;;;5073696;28;20258;-73
2021/04/08 10:38:09;;;;;;;4.55;2.97;;;;;;;;;;5073252;28;20204;-74
2021/04/08 10:40:36;;;;;;;4.80;4.18;;;;;;;;;;5073096;28;20201;-74
2021/04/08 10:43:13;;;;;;;3.60;2.90;;;;;;;;;;5073491;28;20646;-75
2021/04/08 10:45:40;;;;;;;3.45;2.75;;;;;;;;;;5078317;28;20192;-74
2021/04/08 10:48:07;;;;;;;8.18;3.20;;;;;;;;;;5093603;28;20218;-75
2021/04/08 10:50:34;;;;;;;3.47;3.08;;;;;;;;;;5093317;28;20196;-75
2021/04/08 10:53:01;;;;;;;6.22;3.20;;;;;;;;;;5093474;28;20191;-74
2021/04/08 10:55:27;;;;;;;4.75;3.22;;;;;;;;;;5093194;28;20484;-75
2021/04/08 10:57:54;;;;;;;3.53;2.85;;;;;;;;;;5092906;28;20197;-74
2021/04/08 11:00:20;;;;;;;5.47;3.55;;;;;;;;;;5092489;28;20197;-73
2021/04/08 11:02:47;;;;;;;5.43;2.92;;;;;;;;;;5093074;28;20646;-75
2021/04/08 11:05:18;;;;;;;4.97;3.78;;;;;;;;;;5093144;28;20240;-75
2021/04/08 11:07:46;;;;;;;3.83;3.10;;;;;;;;;;5092456;28;20231;-74
2021/04/08 11:10:13;;;;;;;3.83;2.75;;;;;;;;;;5093033;28;20220;-75
2021/04/08 11:12:40;;;;;;;5.70;3.65;;;;;;;;;;5092809;28;20194;-75
2021/04/08 11:15:08;;;;;;;7.15;3.20;;;;;;;;;;5092695;28;20209;-75
2021/04/08 11:17:36;;;;;;;5.43;2.42;;;;;;;;;;5092608;28;20592;-76
2021/04/08 11:20:03;;;;;;;7.10;3.45;;;;;;;;;;5092617;28;20283;-76
2021/04/08 11:22:33;;;;;;;5.15;3.05;;;;;;;;;;5092156;28;20196;-75
2021/04/08 11:25:00;;;;;;;8.60;3.40;;;;;;;;;;5092593;28;20633;-74
2021/04/08 11:27:30;;;;;;;7.45;4.00;;;;;;;;;;5091954;28;20190;-74
2021/04/08 11:29:56;;;;;;;5.78;3.55;;;;;;;;;;5092450;28;20245;-77
2021/04/08 11:32:23;;;;;;;4.18;3.15;;;;;;;;;;5092786;28;20297;-75
2021/04/08 11:34:50;;;;;;;3.38;2.72;;;;;;;;;;5092781;28;20561;-75
2021/04/08 11:37:17;;;;;;;6.53;4.10;;;;;;;;;;5092005;28;20231;-74
2021/04/08 11:39:45;;;;;;;6.00;3.90;;;;;;;;;;5091954;28;20581;-75
2021/04/08 11:42:15;;;;;;;5.55;4.15;;;;;;;;;;5091738;28;20211;-74
2021/04/08 11:44:41;;;;;;;5.50;3.38;;;;;;;;;;5091780;28;20207;-75
2021/04/08 11:47:12;;;;;;;4.90;3.70;;;;;;;;;;5091785;28;20223;-74
2021/04/08 11:49:42;;;;;;;6.78;4.72;;;;;;;;;;5091660;28;20199;-74
2021/04/08 11:52:09;;;;;;;4.25;3.63;;;;;;;;;;5091890;28;20561;-74
2021/04/08 11:54:35;;;;;;;8.38;4.38;;;;;;;;;;5091955;28;20196;-74
2021/04/08 11:57:06;;;;;;;3.53;3.22;;;;;;;;;;5091168;28;20238;-74
2021/04/08 11:59:34;;;;;;;9.18;4.00;;;;;;;;;;5091726;28;20315;-74
2021/04/08 12:02:00;;;;;;;10.05;4.50;;;;;;;;;;5091977;28;20218;-76
2021/04/08 12:04:27;;;;;;;5.30;3.65;;;;;;;;;;5091987;28;20207;-74
2021/04/08 12:06:55;;;;;;;6.00;4.10;;;;;;;;;;5092006;28;20625;-73
2021/04/08 12:09:33;;;;;;;7.40;5.60;;;;;;;;;;5092048;28;20650;-74
2021/04/08 12:11:59;;;;;;;5.38;4.22;;;;;;;;;;5091720;28;20661;-75
2021/04/08 12:14:26;;;;;;;13.05;4.05;;;;;;;;;;5091584;28;20200;-75
2021/04/08 12:17:02;;;;;;;7.00;4.07;;;;;;;;;;5091483;28;20216;-74
2021/04/08 12:19:28;;;;;;;7.00;3.70;;;;;;;;;;5091151;28;20206;-74
2021/04/08 12:21:59;;;;;;;7.45;4.10;;;;;;;;;;5091903;28;20295;-74
2021/04/08 12:24:25;;;;;;;5.45;4.00;;;;;;;;;;5092162;28;20275;-74
2021/04/08 12:26:51;;;;;;;17.00;4.68;;;;;;;;;;5091980;28;20703;-74
2021/04/08 12:29:20;;;;;;;6.78;3.75;;;;;;;;;;5091449;28;20200;-75
2021/04/08 12:31:48;;;;;;;5.65;3.85;;;;;;;;;;5092337;28;20191;-74
2021/04/08 12:34:14;;;;;;;6.72;3.83;;;;;;;;;;5091458;28;20201;-76
2021/04/08 12:36:40;;;;;;;6.50;4.38;;;;;;;;;;5091097;28;20229;-74
2021/04/08 12:39:07;;;;;;;5.30;3.95;;;;;;;;;;5091566;28;20216;-74
2021/04/08 12:41:33;;;;;;;6.35;4.38;;;;;;;;;;5091899;28;20199;-75
2021/04/08 12:44:00;;;;;;;4.18;3.05;;;;;;;;;;5092230;28;20240;-74
2021/04/08 12:46:26;;;;;;;6.00;4.43;;;;;;;;;;5092041;28;20617;-76
2021/04/08 12:48:53;;;;;;;4.88;4.38;;;;;;;;;;5091522;28;20205;-74
2021/04/08 12:51:20;;;;;;;5.10;3.45;;;;;;;;;;5091970;28;20320;-75
2021/04/08 12:53:46;;;;;;;6.47;3.60;;;;;;;;;;5091472;28;20207;-74
2021/04/08 12:56:13;;;;;;;8.63;4.70;;;;;;;;;;5091333;28;20207;-75
2021/04/08 12:58:40;;;;;;;5.70;4.40;;;;;;;;;;5091569;28;20206;-74
2021/04/08 13:01:06;;;;;;;6.32;3.88;;;;;;;;;;5091594;28;20543;-75
2021/04/08 13:03:32;;;;;;;6.97;4.20;;;;;;;;;;5091181;28;20234;-74
2021/04/08 13:05:59;;;;;;;6.63;3.83;;;;;;;;;;5091155;28;20287;-75
2021/04/08 13:08:25;;;;;;;7.10;3.90;;;;;;;;;;5092257;28;20209;-75
2021/04/08 13:10:51;;;;;;;5.95;3.60;;;;;;;;;;5095116;28;20599;-74
2021/04/08 13:13:17;;;;;;;8.43;4.25;;;;;;;;;;5094675;28;20733;-75
2021/04/08 13:15:44;;;;;;;4.20;3.85;;;;;;;;;;5094846;28;20219;-75
2021/04/08 13:18:10;;;;;;;5.00;3.75;;;;;;;;;;5094501;28;20203;-75
2021/04/08 13:20:36;;;;;;;5.05;4.20;;;;;;;;;;5094807;28;20245;-76
2021/04/08 13:23:04;;;;;;;10.60;4.03;;;;;;;;;;5093992;28;20196;-76
2021/04/08 13:25:31;;;;;;;7.55;3.45;;;;;;;;;;5094776;28;20630;-76
2021/04/08 13:27:57;;;;;;;4.82;3.70;;;;;;;;;;5094546;28;20215;-75
2021/04/08 13:30:25;;;;;;;8.15;3.88;;;;;;;;;;5093798;28;20724;-74
2021/04/08 13:32:51;;;;;;;6.10;3.75;;;;;;;;;;5094439;28;20223;-75
2021/04/08 13:35:18;;;;;;;3.53;3.10;;;;;;;;;;5094527;28;20249;-74
2021/04/08 13:37:44;;;;;;;4.38;3.50;;;;;;;;;;5094251;28;20231;-76
2021/04/08 13:40:12;;;;;;;3.60;3.25;;;;;;;;;;5093944;28;20217;-74
2021/04/08 13:42:40;;;;;;;4.93;3.28;;;;;;;;;;5094637;28;20287;-73
2021/04/08 13:45:07;;;;;;;5.05;3.15;;;;;;;;;;5094912;28;20209;-74
2021/04/08 13:47:33;;;;;;;5.00;3.70;;;;;;;;;;5094506;28;20274;-74
2021/04/08 13:50:00;;;;;;;5.10;2.90;;;;;;;;;;5094694;28;20693;-73
2021/04/08 13:52:29;;;;;;;4.43;3.20;;;;;;;;;;5094604;28;20509;-75
2021/04/08 13:54:57;;;;;;;4.65;3.28;;;;;;;;;;5093940;28;20199;-76
2021/04/08 13:57:24;;;;;;;3.70;3.10;;;;;;;;;;5094224;28;20281;-73
2021/04/08 13:59:50;;;;;;;4.35;3.30;;;;;;;;;;5094800;28;20568;-76
2021/04/08 14:02:17;;;;;;;4.90;3.20;;;;;;;;;;5096748;28;20638;-75
2021/04/08 14:04:43;;;;;;;5.45;3.17;;;;;;;;;;5094911;28;20187;-74
2021/04/08 14:07:09;;;;;;;3.83;2.83;;;;;;;;;;5095445;28;20200;-73
2021/04/08 14:09:36;;;;;;;5.05;3.28;;;;;;;;;;5094808;28;20286;-74
2021/04/08 14:12:02;;;;;;;8.05;3.95;;;;;;;;;;5095574;28;20604;-74
2021/04/08 14:14:29;;;;;;;4.10;3.70;;;;;;;;;;5095671;28;20211;-73
2021/04/08 14:16:55;;;;;;;4.65;3.60;;;;;;;;;;5094665;28;20246;-73
2021/04/08 14:19:22;;;;;;;5.85;4.40;;;;;;;;;;5094332;28;20181;-74
2021/04/08 14:21:49;;;;;;;8.57;3.47;;;;;;;;;;5095011;28;20212;-74
2021/04/08 14:24:15;;;;;;;5.10;2.67;;;;;;;;;;5095103;28;20206;-73
2021/04/08 14:26:42;;;;;;;3.35;2.85;;;;;;;;;;5095250;28;20555;-73
2021/04/08 14:29:08;;;;;;;3.63;3.30;;;;;;;;;;5095469;28;20634;-72
2021/04/08 14:31:36;;;;;;;6.32;2.97;;;;;;;;;;5095383;28;20207;-72
2021/04/08 14:34:04;;;;;;;11.52;3.15;;;;;;;;;;5095786;28;20204;-74
2021/04/08 14:36:31;;;;;;;6.78;3.70;;;;;;;;;;5095233;28;20236;-74
2021/04/08 14:38:57;;;;;;;3.35;2.70;;;;;;;;;;5094165;28;20246;-74
2021/04/08 14:41:23;;;;;;;6.75;3.70;;;;;;;;;;5094258;28;20205;-74
2021/04/08 14:43:50;;;;;;;6.45;3.10;;;;;;;;;;5094273;28;20426;-74
2021/04/08 14:46:16;;;;;;;6.05;3.08;;;;;;;;;;5094914;28;20196;-76